Terminal Aerodrome Forecast
Issued by NWS Nashville, TN

Home | Current Version | Previous Version | Text Only | Print | Product List | Glossary On
Versions: 1 2 3 4 5 6 7 8 9 10 11 12 13
000
FTUS44 KOHX 020500 RRA
TAFBNA
TAF
KBNA 020548Z 0206/0306 18003KT P6SM SKC
     FM021500 18009G18KT P6SM SCT045
     FM022000 18010G20KT P6SM VCSH BKN045
     FM030300 18008KT P6SM VCSH OVC035=

USA.gov is the U.S. government's official web portal to all federal, state and local government web resources and services.